sensor_id;sensor_type;location;lat;lon;timestamp;pressure;altitude;pressure_sealevel;temperature
68588;BMP180;55560;52.174;20.996;2023-07-30T00:01:02;99637.00;;;19.70
68588;BMP180;55560;52.174;20.996;2023-07-30T00:03:38;99637.00;;;19.64
68588;BMP180;55560;52.174;20.996;2023-07-30T00:06:06;99635.60;;;19.66
68588;BMP180;55560;52.174;20.996;2023-07-30T00:08:34;99639.00;;;19.60
68588;BMP180;55560;52.174;20.996;2023-07-30T00:11:02;99639.40;;;19.60
68588;BMP180;55560;52.174;20.996;2023-07-30T00:13:30;99641.00;;;19.64
68588;BMP180;55560;52.174;20.996;2023-07-30T00:15:58;99638.00;;;19.60
68588;BMP180;55560;52.174;20.996;2023-07-30T00:18:25;99634.80;;;19.60
68588;BMP180;55560;52.174;20.996;2023-07-30T00:20:53;99636.40;;;19.60
68588;BMP180;55560;52.174;20.996;2023-07-30T00:23:21;99640.80;;;19.60
68588;BMP180;55560;52.174;20.996;2023-07-30T00:25:49;99644.20;;;19.60
68588;BMP180;55560;52.174;20.996;2023-07-30T00:28:17;99647.00;;;19.60
68588;BMP180;55560;52.174;20.996;2023-07-30T00:30:45;99654.00;;;19.60
68588;BMP180;55560;52.174;20.996;2023-07-30T00:33:13;99658.60;;;19.60
68588;BMP180;55560;52.174;20.996;2023-07-30T00:35:41;99652.80;;;19.52
68588;BMP180;55560;52.174;20.996;2023-07-30T00:38:09;99653.60;;;19.50
68588;BMP180;55560;52.174;20.996;2023-07-30T00:40:40;99658.40;;;19.50
68588;BMP180;55560;52.174;20.996;2023-07-30T00:43:09;99660.00;;;19.50
68588;BMP180;55560;52.174;20.996;2023-07-30T00:45:40;99663.60;;;19.50
68588;BMP180;55560;52.174;20.996;2023-07-30T00:48:10;99664.80;;;19.50
68588;BMP180;55560;52.174;20.996;2023-07-30T00:50:40;99666.40;;;19.40
68588;BMP180;55560;52.174;20.996;2023-07-30T00:53:09;99664.00;;;19.40
68588;BMP180;55560;52.174;20.996;2023-07-30T00:55:39;99664.60;;;19.40
68588;BMP180;55560;52.174;20.996;2023-07-30T00:58:07;99658.20;;;19.40
68588;BMP180;55560;52.174;20.996;2023-07-30T01:00:35;99666.40;;;19.40
68588;BMP180;55560;52.174;20.996;2023-07-30T01:03:03;99664.40;;;19.34
68588;BMP180;55560;52.174;20.996;2023-07-30T01:05:32;99663.20;;;19.34
68588;BMP180;55560;52.174;20.996;2023-07-30T01:08:03;99659.20;;;19.30
68588;BMP180;55560;52.174;20.996;2023-07-30T01:10:32;99669.20;;;19.40
68588;BMP180;55560;52.174;20.996;2023-07-30T01:13:04;99669.60;;;19.40
68588;BMP180;55560;52.174;20.996;2023-07-30T01:15:35;99670.80;;;19.40
68588;BMP180;55560;52.174;20.996;2023-07-30T01:18:03;99666.80;;;19.40
68588;BMP180;55560;52.174;20.996;2023-07-30T01:20:32;99666.60;;;19.36
68588;BMP180;55560;52.174;20.996;2023-07-30T01:23:00;99675.60;;;19.34
68588;BMP180;55560;52.174;20.996;2023-07-30T01:25:31;99676.60;;;19.30
68588;BMP180;55560;52.174;20.996;2023-07-30T01:28:01;99679.40;;;19.36
68588;BMP180;55560;52.174;20.996;2023-07-30T01:30:38;99677.00;;;19.38
68588;BMP180;55560;52.174;20.996;2023-07-30T01:33:10;99678.00;;;19.30
68588;BMP180;55560;52.174;20.996;2023-07-30T01:35:40;99677.40;;;19.30
68588;BMP180;55560;52.174;20.996;2023-07-30T01:38:10;99678.60;;;19.30
68588;BMP180;55560;52.174;20.996;2023-07-30T01:40:38;99676.60;;;19.30
68588;BMP180;55560;52.174;20.996;2023-07-30T01:43:07;99681.00;;;19.30
68588;BMP180;55560;52.174;20.996;2023-07-30T01:45:34;99678.40;;;19.30
68588;BMP180;55560;52.174;20.996;2023-07-30T01:48:02;99679.00;;;19.30
68588;BMP180;55560;52.174;20.996;2023-07-30T01:50:30;99677.00;;;19.30
68588;BMP180;55560;52.174;20.996;2023-07-30T01:52:58;99680.60;;;19.22
68588;BMP180;55560;52.174;20.996;2023-07-30T01:55:26;99678.20;;;19.20
68588;BMP180;55560;52.174;20.996;2023-07-30T01:57:54;99677.60;;;19.20
68588;BMP180;55560;52.174;20.996;2023-07-30T02:00:22;99680.60;;;19.20
68588;BMP180;55560;52.174;20.996;2023-07-30T02:02:50;99683.20;;;19.20
68588;BMP180;55560;52.174;20.996;2023-07-30T02:05:18;99683.60;;;19.20
68588;BMP180;55560;52.174;20.996;2023-07-30T02:07:46;99685.20;;;19.20
68588;BMP180;55560;52.174;20.996;2023-07-30T02:10:15;99687.20;;;19.20
68588;BMP180;55560;52.174;20.996;2023-07-30T02:12:42;99688.40;;;19.16
68588;BMP180;55560;52.174;20.996;2023-07-30T02:15:10;99689.60;;;19.10
68588;BMP180;55560;52.174;20.996;2023-07-30T02:17:39;99694.20;;;19.10
68588;BMP180;55560;52.174;20.996;2023-07-30T02:20:08;99694.60;;;19.10
68588;BMP180;55560;52.174;20.996;2023-07-30T02:22:36;99700.40;;;19.10
68588;BMP180;55560;52.174;20.996;2023-07-30T02:25:04;99697.00;;;19.10
68588;BMP180;55560;52.174;20.996;2023-07-30T02:27:32;99698.60;;;19.10
68588;BMP180;55560;52.174;20.996;2023-07-30T02:30:00;99700.80;;;19.08
68588;BMP180;55560;52.174;20.996;2023-07-30T02:32:31;99709.20;;;19.06
68588;BMP180;55560;52.174;20.996;2023-07-30T02:34:59;99707.60;;;19.02
68588;BMP180;55560;52.174;20.996;2023-07-30T02:37:27;99707.60;;;19.00
68588;BMP180;55560;52.174;20.996;2023-07-30T02:39:57;99705.00;;;19.02
68588;BMP180;55560;52.174;20.996;2023-07-30T02:42:27;99708.00;;;19.02
68588;BMP180;55560;52.174;20.996;2023-07-30T02:44:55;99705.00;;;19.00
68588;BMP180;55560;52.174;20.996;2023-07-30T02:47:22;99706.40;;;19.00
68588;BMP180;55560;52.174;20.996;2023-07-30T02:49:50;99708.20;;;19.02
68588;BMP180;55560;52.174;20.996;2023-07-30T02:52:18;99707.20;;;19.04
68588;BMP180;55560;52.174;20.996;2023-07-30T02:54:46;99702.00;;;19.00
68588;BMP180;55560;52.174;20.996;2023-07-30T02:57:14;99703.20;;;19.00
68588;BMP180;55560;52.174;20.996;2023-07-30T02:59:42;99700.20;;;19.00
68588;BMP180;55560;52.174;20.996;2023-07-30T03:02:10;99702.60;;;19.00
68588;BMP180;55560;52.174;20.996;2023-07-30T03:04:38;99703.00;;;19.00
68588;BMP180;55560;52.174;20.996;2023-07-30T03:07:06;99706.20;;;19.00
68588;BMP180;55560;52.174;20.996;2023-07-30T03:09:34;99706.40;;;18.98
68588;BMP180;55560;52.174;20.996;2023-07-30T03:12:02;99705.00;;;18.90
68588;BMP180;55560;52.174;20.996;2023-07-30T03:14:30;99706.60;;;18.90
68588;BMP180;55560;52.174;20.996;2023-07-30T03:16:58;99711.20;;;18.90
68588;BMP180;55560;52.174;20.996;2023-07-30T03:19:26;99714.80;;;18.90
68588;BMP180;55560;52.174;20.996;2023-07-30T03:21:54;99719.60;;;18.88
68588;BMP180;55560;52.174;20.996;2023-07-30T03:24:22;99721.60;;;18.86
68588;BMP180;55560;52.174;20.996;2023-07-30T03:26:50;99716.60;;;18.88
68588;BMP180;55560;52.174;20.996;2023-07-30T03:29:18;99718.00;;;18.84
68588;BMP180;55560;52.174;20.996;2023-07-30T03:31:46;99722.40;;;18.90
68588;BMP180;55560;52.174;20.996;2023-07-30T03:34:14;99721.20;;;18.90
68588;BMP180;55560;52.174;20.996;2023-07-30T03:36:42;99716.60;;;18.90
68588;BMP180;55560;52.174;20.996;2023-07-30T03:39:10;99723.40;;;18.90
68588;BMP180;55560;52.174;20.996;2023-07-30T03:41:38;99715.60;;;18.90
68588;BMP180;55560;52.174;20.996;2023-07-30T03:44:06;99720.80;;;18.98
68588;BMP180;55560;52.174;20.996;2023-07-30T03:46:34;99720.20;;;18.94
68588;BMP180;55560;52.174;20.996;2023-07-30T03:49:02;99725.80;;;19.00
68588;BMP180;55560;52.174;20.996;2023-07-30T03:51:32;99731.80;;;19.00
68588;BMP180;55560;52.174;20.996;2023-07-30T03:54:02;99730.40;;;19.00
68588;BMP180;55560;52.174;20.996;2023-07-30T03:56:30;99730.20;;;19.00
68588;BMP180;55560;52.174;20.996;2023-07-30T03:58:57;99725.60;;;19.00
68588;BMP180;55560;52.174;20.996;2023-07-30T04:01:25;99725.60;;;19.00
68588;BMP180;55560;52.174;20.996;2023-07-30T04:03:53;99723.80;;;19.00
68588;BMP180;55560;52.174;20.996;2023-07-30T04:06:22;99728.00;;;19.00
68588;BMP180;55560;52.174;20.996;2023-07-30T04:08:50;99734.40;;;19.10
68588;BMP180;55560;52.174;20.996;2023-07-30T04:11:18;99746.60;;;19.10
68588;BMP180;55560;52.174;20.996;2023-07-30T04:13:46;99751.00;;;19.10
68588;BMP180;55560;52.174;20.996;2023-07-30T04:16:14;99748.40;;;19.00
68588;BMP180;55560;52.174;20.996;2023-07-30T04:18:41;99748.60;;;19.10
68588;BMP180;55560;52.174;20.996;2023-07-30T04:21:09;99752.60;;;19.10
68588;BMP180;55560;52.174;20.996;2023-07-30T04:23:38;99752.60;;;19.10
68588;BMP180;55560;52.174;20.996;2023-07-30T04:26:06;99753.40;;;19.10
68588;BMP180;55560;52.174;20.996;2023-07-30T04:28:34;99763.80;;;19.20
68588;BMP180;55560;52.174;20.996;2023-07-30T04:31:02;99772.20;;;19.14
68588;BMP180;55560;52.174;20.996;2023-07-30T04:33:29;99778.20;;;19.10
68588;BMP180;55560;52.174;20.996;2023-07-30T04:35:57;99783.60;;;19.10
68588;BMP180;55560;52.174;20.996;2023-07-30T04:38:25;99780.60;;;19.20
68588;BMP180;55560;52.174;20.996;2023-07-30T04:40:53;99779.40;;;19.20
68588;BMP180;55560;52.174;20.996;2023-07-30T04:43:21;99789.00;;;19.20
68588;BMP180;55560;52.174;20.996;2023-07-30T04:45:54;99794.40;;;19.14
68588;BMP180;55560;52.174;20.996;2023-07-30T04:48:22;99791.20;;;19.10
68588;BMP180;55560;52.174;20.996;2023-07-30T04:50:50;99791.40;;;19.10
68588;BMP180;55560;52.174;20.996;2023-07-30T04:53:18;99792.20;;;19.10
68588;BMP180;55560;52.174;20.996;2023-07-30T04:55:48;99794.80;;;19.10
68588;BMP180;55560;52.174;20.996;2023-07-30T04:58:16;99801.00;;;19.10
68588;BMP180;55560;52.174;20.996;2023-07-30T05:00:44;99801.80;;;19.10
68588;BMP180;55560;52.174;20.996;2023-07-30T05:03:12;99801.80;;;19.18
68588;BMP180;55560;52.174;20.996;2023-07-30T05:05:41;99811.60;;;19.20
68588;BMP180;55560;52.174;20.996;2023-07-30T05:08:09;99818.60;;;19.20
68588;BMP180;55560;52.174;20.996;2023-07-30T05:10:36;99817.20;;;19.30
68588;BMP180;55560;52.174;20.996;2023-07-30T05:13:04;99817.60;;;19.34
68588;BMP180;55560;52.174;20.996;2023-07-30T05:15:32;99822.20;;;19.40
68588;BMP180;55560;52.174;20.996;2023-07-30T05:18:00;99825.20;;;19.40
68588;BMP180;55560;52.174;20.996;2023-07-30T05:20:28;99828.00;;;19.40
68588;BMP180;55560;52.174;20.996;2023-07-30T05:22:55;99827.80;;;19.40
68588;BMP180;55560;52.174;20.996;2023-07-30T05:25:23;99832.80;;;19.40
68588;BMP180;55560;52.174;20.996;2023-07-30T05:27:51;99836.00;;;19.40
68588;BMP180;55560;52.174;20.996;2023-07-30T05:30:19;99833.80;;;19.40
68588;BMP180;55560;52.174;20.996;2023-07-30T05:32:47;99840.40;;;19.50
68588;BMP180;55560;52.174;20.996;2023-07-30T05:35:15;99845.40;;;19.58
68588;BMP180;55560;52.174;20.996;2023-07-30T05:37:43;99846.60;;;19.60
68588;BMP180;55560;52.174;20.996;2023-07-30T05:40:11;99857.00;;;19.60
68588;BMP180;55560;52.174;20.996;2023-07-30T05:42:38;99858.20;;;19.60
68588;BMP180;55560;52.174;20.996;2023-07-30T05:45:07;99855.20;;;19.60
68588;BMP180;55560;52.174;20.996;2023-07-30T05:47:35;99859.40;;;19.60
68588;BMP180;55560;52.174;20.996;2023-07-30T05:50:04;99857.60;;;19.60
68588;BMP180;55560;52.174;20.996;2023-07-30T05:52:32;99861.20;;;19.70
68588;BMP180;55560;52.174;20.996;2023-07-30T05:55:00;99858.80;;;19.78
68588;BMP180;55560;52.174;20.996;2023-07-30T05:57:28;99862.80;;;19.82
68588;BMP180;55560;52.174;20.996;2023-07-30T05:59:55;99866.20;;;20.00
68588;BMP180;55560;52.174;20.996;2023-07-30T06:02:23;99865.80;;;20.00
68588;BMP180;55560;52.174;20.996;2023-07-30T06:04:51;99873.00;;;20.10
68588;BMP180;55560;52.174;20.996;2023-07-30T06:07:19;99874.60;;;20.10
68588;BMP180;55560;52.174;20.996;2023-07-30T06:09:47;99877.60;;;20.20
68588;BMP180;55560;52.174;20.996;2023-07-30T06:12:15;99876.60;;;20.20
68588;BMP180;55560;52.174;20.996;2023-07-30T06:14:42;99868.00;;;20.20
68588;BMP180;55560;52.174;20.996;2023-07-30T06:17:10;99873.60;;;20.20
68588;BMP180;55560;52.174;20.996;2023-07-30T06:19:38;99872.00;;;20.20
68588;BMP180;55560;52.174;20.996;2023-07-30T06:22:06;99872.80;;;20.22
68588;BMP180;55560;52.174;20.996;2023-07-30T06:24:34;99877.20;;;20.40
68588;BMP180;55560;52.174;20.996;2023-07-30T06:27:20;99882.00;;;21.04
68588;BMP180;55560;52.174;20.996;2023-07-30T06:29:48;99881.60;;;21.30
68588;BMP180;55560;52.174;20.996;2023-07-30T06:32:16;99882.40;;;21.28
68588;BMP180;55560;52.174;20.996;2023-07-30T06:34:44;99883.60;;;21.30
68588;BMP180;55560;52.174;20.996;2023-07-30T06:37:12;99878.00;;;21.32
68588;BMP180;55560;52.174;20.996;2023-07-30T06:39:39;99886.00;;;21.52
68588;BMP180;55560;52.174;20.996;2023-07-30T06:42:07;99875.20;;;21.84
68588;BMP180;55560;52.174;20.996;2023-07-30T06:44:36;99881.40;;;21.80
68588;BMP180;55560;52.174;20.996;2023-07-30T06:47:04;99879.80;;;21.70
68588;BMP180;55560;52.174;20.996;2023-07-30T06:49:32;99877.00;;;21.62
68588;BMP180;55560;52.174;20.996;2023-07-30T06:52:02;99876.80;;;21.60
68588;BMP180;55560;52.174;20.996;2023-07-30T06:54:30;99878.40;;;21.40
68588;BMP180;55560;52.174;20.996;2023-07-30T06:56:57;99882.00;;;21.30
68588;BMP180;55560;52.174;20.996;2023-07-30T06:59:25;99887.40;;;21.20
68588;BMP180;55560;52.174;20.996;2023-07-30T07:01:53;99889.80;;;21.20
68588;BMP180;55560;52.174;20.996;2023-07-30T07:04:21;99892.80;;;21.20
68588;BMP180;55560;52.174;20.996;2023-07-30T07:06:49;99886.60;;;21.24
68588;BMP180;55560;52.174;20.996;2023-07-30T07:09:16;99890.80;;;21.20
68588;BMP180;55560;52.174;20.996;2023-07-30T07:11:45;99887.20;;;21.20
68588;BMP180;55560;52.174;20.996;2023-07-30T07:14:13;99882.40;;;21.20
68588;BMP180;55560;52.174;20.996;2023-07-30T07:16:41;99885.40;;;21.30
68588;BMP180;55560;52.174;20.996;2023-07-30T07:19:09;99887.20;;;21.40
68588;BMP180;55560;52.174;20.996;2023-07-30T07:21:36;99895.60;;;21.40
68588;BMP180;55560;52.174;20.996;2023-07-30T07:24:05;99895.40;;;21.30
68588;BMP180;55560;52.174;20.996;2023-07-30T07:26:33;99900.80;;;21.40
68588;BMP180;55560;52.174;20.996;2023-07-30T07:29:01;99899.40;;;21.48
68588;BMP180;55560;52.174;20.996;2023-07-30T07:31:29;99904.60;;;21.50
68588;BMP180;55560;52.174;20.996;2023-07-30T07:33:57;99911.60;;;21.60
68588;BMP180;55560;52.174;20.996;2023-07-30T07:36:24;99911.40;;;21.60
68588;BMP180;55560;52.174;20.996;2023-07-30T07:38:52;99903.20;;;21.68
68588;BMP180;55560;52.174;20.996;2023-07-30T07:41:20;99899.20;;;21.70
68588;BMP180;55560;52.174;20.996;2023-07-30T07:43:48;99903.80;;;21.80
68588;BMP180;55560;52.174;20.996;2023-07-30T07:46:16;99901.20;;;22.44
68588;BMP180;55560;52.174;20.996;2023-07-30T07:48:44;99901.20;;;23.06
68588;BMP180;55560;52.174;20.996;2023-07-30T07:51:12;99895.60;;;23.20
68588;BMP180;55560;52.174;20.996;2023-07-30T07:53:40;99899.80;;;23.20
68588;BMP180;55560;52.174;20.996;2023-07-30T07:56:08;99902.80;;;23.18
68588;BMP180;55560;52.174;20.996;2023-07-30T07:58:36;99900.80;;;23.00
68588;BMP180;55560;52.174;20.996;2023-07-30T08:01:05;99904.80;;;22.84
68588;BMP180;55560;52.174;20.996;2023-07-30T08:03:32;99904.40;;;22.70
68588;BMP180;55560;52.174;20.996;2023-07-30T08:06:00;99901.40;;;22.60
68588;BMP180;55560;52.174;20.996;2023-07-30T08:08:28;99907.20;;;22.58
68588;BMP180;55560;52.174;20.996;2023-07-30T08:10:56;99911.00;;;22.40
68588;BMP180;55560;52.174;20.996;2023-07-30T08:13:24;99910.20;;;22.36
68588;BMP180;55560;52.174;20.996;2023-07-30T08:15:51;99913.60;;;22.38
68588;BMP180;55560;52.174;20.996;2023-07-30T08:18:20;99911.60;;;22.30
68588;BMP180;55560;52.174;20.996;2023-07-30T08:20:49;99913.40;;;22.30
68588;BMP180;55560;52.174;20.996;2023-07-30T08:23:17;99904.80;;;22.32
68588;BMP180;55560;52.174;20.996;2023-07-30T08:25:45;99911.80;;;22.50
68588;BMP180;55560;52.174;20.996;2023-07-30T08:28:13;99915.00;;;22.46
68588;BMP180;55560;52.174;20.996;2023-07-30T08:30:41;99909.80;;;22.40
68588;BMP180;55560;52.174;20.996;2023-07-30T08:33:09;99910.00;;;22.40
68588;BMP180;55560;52.174;20.996;2023-07-30T08:35:37;99903.60;;;22.40
68588;BMP180;55560;52.174;20.996;2023-07-30T08:38:05;99906.80;;;22.40
68588;BMP180;55560;52.174;20.996;2023-07-30T08:40:33;99913.40;;;22.50
68588;BMP180;55560;52.174;20.996;2023-07-30T08:43:01;99919.20;;;22.50
68588;BMP180;55560;52.174;20.996;2023-07-30T08:45:30;99909.60;;;22.60
68588;BMP180;55560;52.174;20.996;2023-07-30T08:47:58;99914.00;;;22.70
68588;BMP180;55560;52.174;20.996;2023-07-30T08:50:26;99920.60;;;22.70
68588;BMP180;55560;52.174;20.996;2023-07-30T08:52:57;99915.40;;;22.82
68588;BMP180;55560;52.174;20.996;2023-07-30T08:55:26;99915.80;;;23.00
68588;BMP180;55560;52.174;20.996;2023-07-30T08:57:58;99914.60;;;23.00
68588;BMP180;55560;52.174;20.996;2023-07-30T09:00:30;99921.60;;;23.00
68588;BMP180;55560;52.174;20.996;2023-07-30T09:03:00;99921.80;;;23.00
68588;BMP180;55560;52.174;20.996;2023-07-30T09:05:30;99919.40;;;23.00
68588;BMP180;55560;52.174;20.996;2023-07-30T09:07:58;99921.40;;;23.00
68588;BMP180;55560;52.174;20.996;2023-07-30T09:10:26;99921.80;;;23.00
68588;BMP180;55560;52.174;20.996;2023-07-30T09:12:55;99926.20;;;23.00
68588;BMP180;55560;52.174;20.996;2023-07-30T09:15:36;99926.40;;;23.10
68588;BMP180;55560;52.174;20.996;2023-07-30T09:18:07;99930.00;;;23.10
68588;BMP180;55560;52.174;20.996;2023-07-30T09:20:39;99926.00;;;23.20
68588;BMP180;55560;52.174;20.996;2023-07-30T09:23:08;99932.80;;;23.22
68588;BMP180;55560;52.174;20.996;2023-07-30T09:25:37;99942.00;;;23.30
68588;BMP180;55560;52.174;20.996;2023-07-30T09:28:06;99941.80;;;23.40
68588;BMP180;55560;52.174;20.996;2023-07-30T09:30:34;99942.40;;;23.40
68588;BMP180;55560;52.174;20.996;2023-07-30T09:33:02;99941.80;;;23.50
68588;BMP180;55560;52.174;20.996;2023-07-30T09:35:33;99942.60;;;23.60
68588;BMP180;55560;52.174;20.996;2023-07-30T09:38:03;99947.20;;;23.60
68588;BMP180;55560;52.174;20.996;2023-07-30T09:40:33;99945.80;;;23.52
68588;BMP180;55560;52.174;20.996;2023-07-30T09:43:05;99950.00;;;23.50
68588;BMP180;55560;52.174;20.996;2023-07-30T09:45:35;99948.00;;;23.60
68588;BMP180;55560;52.174;20.996;2023-07-30T09:48:05;99948.00;;;23.50
68588;BMP180;55560;52.174;20.996;2023-07-30T09:50:34;99948.00;;;23.66
68588;BMP180;55560;52.174;20.996;2023-07-30T09:53:03;99947.80;;;23.70
68588;BMP180;55560;52.174;20.996;2023-07-30T09:55:31;99945.80;;;23.78
68588;BMP180;55560;52.174;20.996;2023-07-30T09:57:59;99946.40;;;23.70
68588;BMP180;55560;52.174;20.996;2023-07-30T10:00:29;99950.20;;;23.78
68588;BMP180;55560;52.174;20.996;2023-07-30T10:02:58;99944.40;;;23.90
68588;BMP180;55560;52.174;20.996;2023-07-30T10:05:33;99940.40;;;24.00
68588;BMP180;55560;52.174;20.996;2023-07-30T10:08:12;99939.80;;;24.10
68588;BMP180;55560;52.174;20.996;2023-07-30T10:10:42;99930.20;;;24.20
68588;BMP180;55560;52.174;20.996;2023-07-30T10:13:12;99930.80;;;24.20
68588;BMP180;55560;52.174;20.996;2023-07-30T10:15:43;99928.60;;;24.32
68588;BMP180;55560;52.174;20.996;2023-07-30T10:18:11;99928.80;;;24.40
68588;BMP180;55560;52.174;20.996;2023-07-30T10:20:39;99926.40;;;24.42
68588;BMP180;55560;52.174;20.996;2023-07-30T10:23:07;99926.20;;;24.50
68588;BMP180;55560;52.174;20.996;2023-07-30T10:25:43;99926.20;;;24.66
68588;BMP180;55560;52.174;20.996;2023-07-30T10:31:01;99913.60;;;24.92
68588;BMP180;55560;52.174;20.996;2023-07-30T10:34:07;99920.20;;;25.04
68588;BMP180;55560;52.174;20.996;2023-07-30T10:36:50;99923.20;;;25.20
68588;BMP180;55560;52.174;20.996;2023-07-30T10:39:22;99919.60;;;25.30
68588;BMP180;55560;52.174;20.996;2023-07-30T10:41:56;99915.20;;;25.40
68588;BMP180;55560;52.174;20.996;2023-07-30T10:44:32;99913.20;;;25.60
68588;BMP180;55560;52.174;20.996;2023-07-30T10:47:02;99916.60;;;25.50
68588;BMP180;55560;52.174;20.996;2023-07-30T10:49:39;99920.40;;;25.50
68588;BMP180;55560;52.174;20.996;2023-07-30T10:52:09;99920.20;;;25.50
68588;BMP180;55560;52.174;20.996;2023-07-30T10:54:37;99916.00;;;25.40
68588;BMP180;55560;52.174;20.996;2023-07-30T10:57:06;99917.00;;;25.30
68588;BMP180;55560;52.174;20.996;2023-07-30T10:59:38;99915.60;;;25.30
68588;BMP180;55560;52.174;20.996;2023-07-30T11:02:05;99912.60;;;25.20
68588;BMP180;55560;52.174;20.996;2023-07-30T11:04:37;99910.60;;;25.20
68588;BMP180;55560;52.174;20.996;2023-07-30T11:07:05;99910.40;;;25.20
68588;BMP180;55560;52.174;20.996;2023-07-30T11:09:33;99910.60;;;25.20
68588;BMP180;55560;52.174;20.996;2023-07-30T11:12:03;99910.60;;;25.20
68588;BMP180;55560;52.174;20.996;2023-07-30T11:14:31;99910.20;;;25.20
68588;BMP180;55560;52.174;20.996;2023-07-30T11:16:59;99903.60;;;25.20
68588;BMP180;55560;52.174;20.996;2023-07-30T11:19:29;99893.00;;;25.20
68588;BMP180;55560;52.174;20.996;2023-07-30T11:21:57;99900.60;;;25.20
68588;BMP180;55560;52.174;20.996;2023-07-30T11:24:45;99903.40;;;25.30
68588;BMP180;55560;52.174;20.996;2023-07-30T11:27:13;99899.20;;;25.40
68588;BMP180;55560;52.174;20.996;2023-07-30T11:29:41;99892.00;;;25.40
68588;BMP180;55560;52.174;20.996;2023-07-30T11:32:09;99893.80;;;25.40
68588;BMP180;55560;52.174;20.996;2023-07-30T11:34:37;99892.00;;;25.40
68588;BMP180;55560;52.174;20.996;2023-07-30T11:37:07;99890.80;;;25.40
68588;BMP180;55560;52.174;20.996;2023-07-30T11:39:35;99889.80;;;25.40
68588;BMP180;55560;52.174;20.996;2023-07-30T11:42:04;99890.20;;;25.50
68588;BMP180;55560;52.174;20.996;2023-07-30T11:44:37;99890.20;;;25.60
68588;BMP180;55560;52.174;20.996;2023-07-30T11:47:07;99882.60;;;25.80
68588;BMP180;55560;52.174;20.996;2023-07-30T11:49:37;99876.40;;;26.00
68588;BMP180;55560;52.174;20.996;2023-07-30T11:52:09;99882.20;;;26.20
68588;BMP180;55560;52.174;20.996;2023-07-30T11:54:38;99887.40;;;26.20
68588;BMP180;55560;52.174;20.996;2023-07-30T11:57:06;99888.60;;;26.30
68588;BMP180;55560;52.174;20.996;2023-07-30T11:59:34;99890.20;;;26.32
68588;BMP180;55560;52.174;20.996;2023-07-30T12:02:03;99889.60;;;26.40
68588;BMP180;55560;52.174;20.996;2023-07-30T12:04:43;99893.40;;;26.40
68588;BMP180;55560;52.174;20.996;2023-07-30T12:07:21;99895.00;;;26.40
68588;BMP180;55560;52.174;20.996;2023-07-30T12:09:49;99894.80;;;26.40
68588;BMP180;55560;52.174;20.996;2023-07-30T12:12:17;99896.00;;;26.40
68588;BMP180;55560;52.174;20.996;2023-07-30T12:17:16;99893.40;;;26.10
68588;BMP180;55560;52.174;20.996;2023-07-30T12:19:44;99895.00;;;26.10
68588;BMP180;55560;52.174;20.996;2023-07-30T12:22:11;99897.40;;;26.02
68588;BMP180;55560;52.174;20.996;2023-07-30T12:24:40;99895.40;;;25.90
68588;BMP180;55560;52.174;20.996;2023-07-30T12:27:08;99895.80;;;25.80
68588;BMP180;55560;52.174;20.996;2023-07-30T12:29:36;99898.00;;;25.80
68588;BMP180;55560;52.174;20.996;2023-07-30T12:32:04;99895.00;;;25.90
68588;BMP180;55560;52.174;20.996;2023-07-30T12:34:32;99894.80;;;25.90
68588;BMP180;55560;52.174;20.996;2023-07-30T12:37:00;99891.80;;;25.92
68588;BMP180;55560;52.174;20.996;2023-07-30T12:39:28;99889.40;;;25.90
68588;BMP180;55560;52.174;20.996;2023-07-30T12:41:55;99891.80;;;25.94
68588;BMP180;55560;52.174;20.996;2023-07-30T12:44:26;99886.20;;;26.10
68588;BMP180;55560;52.174;20.996;2023-07-30T12:46:54;99893.40;;;26.20
68588;BMP180;55560;52.174;20.996;2023-07-30T12:49:22;99891.60;;;26.40
68588;BMP180;55560;52.174;20.996;2023-07-30T12:51:50;99890.00;;;26.58
68588;BMP180;55560;52.174;20.996;2023-07-30T12:54:17;99886.20;;;26.70
68588;BMP180;55560;52.174;20.996;2023-07-30T12:56:45;99888.80;;;26.90
68588;BMP180;55560;52.174;20.996;2023-07-30T12:59:13;99886.40;;;26.90
68588;BMP180;55560;52.174;20.996;2023-07-30T13:01:42;99888.40;;;26.94
68588;BMP180;55560;52.174;20.996;2023-07-30T13:04:15;99889.80;;;27.00
68588;BMP180;55560;52.174;20.996;2023-07-30T13:06:43;99885.80;;;27.10
68588;BMP180;55560;52.174;20.996;2023-07-30T13:09:11;99879.20;;;27.20
68588;BMP180;55560;52.174;20.996;2023-07-30T13:11:39;99877.60;;;27.20
68588;BMP180;55560;52.174;20.996;2023-07-30T13:14:07;99878.40;;;27.20
68588;BMP180;55560;52.174;20.996;2023-07-30T13:16:35;99879.80;;;27.12
68588;BMP180;55560;52.174;20.996;2023-07-30T13:19:03;99874.20;;;27.20
68588;BMP180;55560;52.174;20.996;2023-07-30T13:21:31;99872.80;;;27.36
68588;BMP180;55560;52.174;20.996;2023-07-30T13:23:58;99874.60;;;27.60
68588;BMP180;55560;52.174;20.996;2023-07-30T13:26:26;99875.60;;;27.74
68588;BMP180;55560;52.174;20.996;2023-07-30T13:28:54;99872.80;;;27.92
68588;BMP180;55560;52.174;20.996;2023-07-30T13:31:22;99869.20;;;28.20
68588;BMP180;55560;52.174;20.996;2023-07-30T13:33:50;99869.60;;;28.40
68588;BMP180;55560;52.174;20.996;2023-07-30T13:36:18;99876.80;;;28.50
68588;BMP180;55560;52.174;20.996;2023-07-30T13:38:46;99881.60;;;28.60
68588;BMP180;55560;52.174;20.996;2023-07-30T13:41:14;99878.60;;;28.60
68588;BMP180;55560;52.174;20.996;2023-07-30T13:43:42;99875.40;;;28.50
68588;BMP180;55560;52.174;20.996;2023-07-30T13:46:10;99867.40;;;28.52
68588;BMP180;55560;52.174;20.996;2023-07-30T13:48:38;99876.80;;;28.70
68588;BMP180;55560;52.174;20.996;2023-07-30T13:51:05;99873.60;;;28.74
68588;BMP180;55560;52.174;20.996;2023-07-30T13:53:33;99874.20;;;28.82
68588;BMP180;55560;52.174;20.996;2023-07-30T13:56:06;99874.60;;;29.00
68588;BMP180;55560;52.174;20.996;2023-07-30T13:58:34;99869.00;;;29.06
68588;BMP180;55560;52.174;20.996;2023-07-30T14:01:01;99870.20;;;29.30
68588;BMP180;55560;52.174;20.996;2023-07-30T14:03:30;99867.00;;;29.40
68588;BMP180;55560;52.174;20.996;2023-07-30T14:05:58;99869.20;;;29.30
68588;BMP180;55560;52.174;20.996;2023-07-30T14:08:26;99866.20;;;29.10
68588;BMP180;55560;52.174;20.996;2023-07-30T14:10:53;99865.40;;;28.88